Jask, Iran
Current Conditions -  °F | °C
As of 9:00 AM on Thursday 29 Jan 2015 (Local Time) from OMFJ Reporting Station
Clear Clear  
Wind Chill: 24°   Ceiling: Unl
Heat Index: 24°   Visibility: 4mi
Dew Point: 11°   Wind: 3mph
Humidity: 44%   Direction: 150°SSE
Pressure: 30.12"   Gusts: NA
Location:  25.65°N, 57.78°E
Report Text: OMFJ 290600Z 15003KT 7000 NSC 24/11 Q1020 A3012
Loading
Personal Weather Stations






























Interactive Weather Map New forecast layout! Learn more

10-Day Weather Forecast

Advertisements
Track Severe Weather on mobile